sensor_id;sensor_type;location;lat;lon;timestamp;P1;durP1;ratioP1;P2;durP2;ratioP2
44366;SDS011;30086;57.660;12.000;2023-08-31T07:35:12;3.38;;;1.83;;
44366;SDS011;30086;57.660;12.000;2023-08-31T07:37:42;5.75;;;2.10;;
44366;SDS011;30086;57.660;12.000;2023-08-31T07:40:18;2.00;;;1.50;;
44366;SDS011;30086;57.660;12.000;2023-08-31T07:43:06;3.75;;;2.00;;
44366;SDS011;30086;57.660;12.000;2023-08-31T07:56:35;2.90;;;1.70;;
44366;SDS011;30086;57.660;12.000;2023-08-31T08:06:48;7.03;;;2.20;;
44366;SDS011;30086;57.660;12.000;2023-08-31T09:09:26;2.67;;;1.23;;
44366;SDS011;30086;57.660;12.000;2023-08-31T09:12:13;2.67;;;1.40;;
44366;SDS011;30086;57.660;12.000;2023-08-31T09:17:47;2.83;;;1.33;;
44366;SDS011;30086;57.660;12.000;2023-08-31T09:20:44;4.72;;;1.52;;
44366;SDS011;30086;57.660;12.000;2023-08-31T09:23:29;4.50;;;1.27;;
44366;SDS011;30086;57.660;12.000;2023-08-31T09:58:22;3.50;;;1.30;;
44366;SDS011;30086;57.660;12.000;2023-08-31T10:00:56;2.92;;;1.42;;
44366;SDS011;30086;57.660;12.000;2023-08-31T10:04:03;2.97;;;1.20;;
44366;SDS011;30086;57.660;12.000;2023-08-31T10:06:53;2.38;;;1.23;;
44366;SDS011;30086;57.660;12.000;2023-08-31T10:10:02;2.42;;;1.38;;
44366;SDS011;30086;57.660;12.000;2023-08-31T10:43:55;4.65;;;1.60;;
44366;SDS011;30086;57.660;12.000;2023-08-31T11:10:19;1.85;;;1.27;;
44366;SDS011;30086;57.660;12.000;2023-08-31T11:13:22;2.20;;;1.38;;
44366;SDS011;30086;57.660;12.000;2023-08-31T11:16:40;2.63;;;1.20;;
44366;SDS011;30086;57.660;12.000;2023-08-31T11:22:08;1.88;;;1.35;;
44366;SDS011;30086;57.660;12.000;2023-08-31T11:25:16;3.85;;;1.48;;
44366;SDS011;30086;57.660;12.000;2023-08-31T11:28:31;1.95;;;1.33;;
44366;SDS011;30086;57.660;12.000;2023-08-31T11:31:38;6.28;;;1.48;;
44366;SDS011;30086;57.660;12.000;2023-08-31T11:34:24;2.10;;;1.20;;
44366;SDS011;30086;57.660;12.000;2023-08-31T11:36:50;4.60;;;1.55;;
44366;SDS011;30086;57.660;12.000;2023-08-31T11:39:18;2.53;;;1.40;;
44366;SDS011;30086;57.660;12.000;2023-08-31T11:41:47;1.88;;;1.20;;
44366;SDS011;30086;57.660;12.000;2023-08-31T11:44:35;2.78;;;1.38;;
44366;SDS011;30086;57.660;12.000;2023-08-31T11:47:44;1.63;;;1.40;;
44366;SDS011;30086;57.660;12.000;2023-08-31T11:50:32;5.97;;;1.60;;
44366;SDS011;30086;57.660;12.000;2023-08-31T11:53:42;2.42;;;1.58;;
44366;SDS011;30086;57.660;12.000;2023-08-31T11:56:48;1.92;;;1.50;;
44366;SDS011;30086;57.660;12.000;2023-08-31T11:59:17;3.70;;;1.35;;
44366;SDS011;30086;57.660;12.000;2023-08-31T12:10:14;3.95;;;1.60;;
44366;SDS011;30086;57.660;12.000;2023-08-31T12:12:43;4.53;;;1.35;;
44366;SDS011;30086;57.660;12.000;2023-08-31T12:15:52;2.05;;;1.40;;
44366;SDS011;30086;57.660;12.000;2023-08-31T12:18:37;5.45;;;1.58;;
44366;SDS011;30086;57.660;12.000;2023-08-31T12:21:05;3.58;;;1.73;;
44366;SDS011;30086;57.660;12.000;2023-08-31T12:23:33;6.13;;;1.90;;
44366;SDS011;30086;57.660;12.000;2023-08-31T12:29:58;5.85;;;2.38;;
44366;SDS011;30086;57.660;12.000;2023-08-31T12:35:27;4.03;;;1.90;;
44366;SDS011;30086;57.660;12.000;2023-08-31T12:48:44;2.58;;;1.42;;
44366;SDS011;30086;57.660;12.000;2023-08-31T12:59:17;1.08;;;0.65;;
44366;SDS011;30086;57.660;12.000;2023-08-31T13:39:06;3.03;;;1.50;;
44366;SDS011;30086;57.660;12.000;2023-08-31T13:45:15;3.20;;;1.42;;
44366;SDS011;30086;57.660;12.000;2023-08-31T15:24:22;4.00;;;1.98;;
44366;SDS011;30086;57.660;12.000;2023-08-31T15:36:06;4.35;;;2.25;;
44366;SDS011;30086;57.660;12.000;2023-08-31T15:39:11;5.80;;;2.58;;
44366;SDS011;30086;57.660;12.000;2023-08-31T15:41:53;4.85;;;2.33;;
44366;SDS011;30086;57.660;12.000;2023-08-31T15:44:41;3.47;;;1.90;;
44366;SDS011;30086;57.660;12.000;2023-08-31T15:47:37;4.63;;;2.35;;
44366;SDS011;30086;57.660;12.000;2023-08-31T15:50:32;3.67;;;2.30;;
44366;SDS011;30086;57.660;12.000;2023-08-31T16:01:01;5.30;;;2.22;;
44366;SDS011;30086;57.660;12.000;2023-08-31T16:03:41;3.97;;;1.67;;
44366;SDS011;30086;57.660;12.000;2023-08-31T16:06:20;4.32;;;2.25;;
44366;SDS011;30086;57.660;12.000;2023-08-31T16:08:55;3.75;;;2.00;;
44366;SDS011;30086;57.660;12.000;2023-08-31T16:11:50;3.28;;;1.95;;
44366;SDS011;30086;57.660;12.000;2023-08-31T16:14:25;4.32;;;2.15;;
44366;SDS011;30086;57.660;12.000;2023-08-31T16:16:52;2.17;;;1.67;;
44366;SDS011;30086;57.660;12.000;2023-08-31T16:19:18;3.80;;;2.35;;
44366;SDS011;30086;57.660;12.000;2023-08-31T16:21:45;3.58;;;1.77;;
44366;SDS011;30086;57.660;12.000;2023-08-31T16:24:21;4.25;;;2.08;;
44366;SDS011;30086;57.660;12.000;2023-08-31T16:26:51;5.88;;;1.85;;
44366;SDS011;30086;57.660;12.000;2023-08-31T16:31:56;3.22;;;1.70;;
44366;SDS011;30086;57.660;12.000;2023-08-31T16:37:17;5.00;;;2.55;;
44366;SDS011;30086;57.660;12.000;2023-08-31T16:39:43;5.78;;;2.20;;
44366;SDS011;30086;57.660;12.000;2023-08-31T17:31:34;2.58;;;1.80;;
44366;SDS011;30086;57.660;12.000;2023-08-31T17:34:49;4.18;;;2.45;;
44366;SDS011;30086;57.660;12.000;2023-08-31T17:37:16;3.75;;;2.10;;
44366;SDS011;30086;57.660;12.000;2023-08-31T17:43:00;4.57;;;2.53;;
44366;SDS011;30086;57.660;12.000;2023-08-31T17:45:27;3.45;;;1.90;;
44366;SDS011;30086;57.660;12.000;2023-08-31T17:48:39;3.53;;;2.10;;
44366;SDS011;30086;57.660;12.000;2023-08-31T17:51:38;3.25;;;2.15;;
44366;SDS011;30086;57.660;12.000;2023-08-31T17:54:25;3.00;;;2.13;;
44366;SDS011;30086;57.660;12.000;2023-08-31T17:57:19;2.67;;;1.75;;
44366;SDS011;30086;57.660;12.000;2023-08-31T17:59:57;4.70;;;1.92;;
44366;SDS011;30086;57.660;12.000;2023-08-31T18:02:34;3.60;;;1.67;;
44366;SDS011;30086;57.660;12.000;2023-08-31T18:08:22;3.83;;;1.95;;
44366;SDS011;30086;57.660;12.000;2023-08-31T18:10:54;4.93;;;2.17;;
44366;SDS011;30086;57.660;12.000;2023-08-31T18:16:36;3.85;;;2.40;;
44366;SDS011;30086;57.660;12.000;2023-08-31T18:19:33;4.70;;;2.42;;
44366;SDS011;30086;57.660;12.000;2023-08-31T18:25:24;6.18;;;2.55;;
44366;SDS011;30086;57.660;12.000;2023-08-31T18:36:35;7.20;;;2.20;;
44366;SDS011;30086;57.660;12.000;2023-08-31T18:39:24;3.17;;;2.30;;
44366;SDS011;30086;57.660;12.000;2023-08-31T18:41:52;4.47;;;2.45;;
44366;SDS011;30086;57.660;12.000;2023-08-31T18:45:02;4.05;;;2.33;;
44366;SDS011;30086;57.660;12.000;2023-08-31T18:47:39;5.07;;;2.90;;
44366;SDS011;30086;57.660;12.000;2023-08-31T18:50:38;4.30;;;2.28;;
44366;SDS011;30086;57.660;12.000;2023-08-31T18:53:05;4.25;;;2.40;;
44366;SDS011;30086;57.660;12.000;2023-08-31T18:55:36;3.05;;;2.17;;
44366;SDS011;30086;57.660;12.000;2023-08-31T18:58:27;4.80;;;2.42;;
44366;SDS011;30086;57.660;12.000;2023-08-31T19:01:05;3.63;;;2.30;;
44366;SDS011;30086;57.660;12.000;2023-08-31T19:03:51;6.50;;;2.67;;
44366;SDS011;30086;57.660;12.000;2023-08-31T19:06:38;5.85;;;2.85;;
44366;SDS011;30086;57.660;12.000;2023-08-31T19:12:48;4.32;;;2.80;;
44366;SDS011;30086;57.660;12.000;2023-08-31T19:15:36;5.53;;;2.75;;
44366;SDS011;30086;57.660;12.000;2023-08-31T19:18:47;4.00;;;2.58;;
44366;SDS011;30086;57.660;12.000;2023-08-31T19:21:25;5.40;;;2.47;;
44366;SDS011;30086;57.660;12.000;2023-08-31T19:24:41;5.07;;;2.92;;
44366;SDS011;30086;57.660;12.000;2023-08-31T19:27:39;4.90;;;2.53;;
44366;SDS011;30086;57.660;12.000;2023-08-31T19:30:32;5.57;;;2.42;;
44366;SDS011;30086;57.660;12.000;2023-08-31T19:33:42;3.72;;;2.17;;
44366;SDS011;30086;57.660;12.000;2023-08-31T19:36:31;6.72;;;2.72;;
44366;SDS011;30086;57.660;12.000;2023-08-31T19:39:45;4.60;;;2.75;;
44366;SDS011;30086;57.660;12.000;2023-08-31T19:44:53;6.63;;;2.70;;
44366;SDS011;30086;57.660;12.000;2023-08-31T19:48:09;3.85;;;1.95;;
44366;SDS011;30086;57.660;12.000;2023-08-31T19:51:21;4.57;;;2.30;;
44366;SDS011;30086;57.660;12.000;2023-08-31T19:54:18;6.47;;;2.55;;
44366;SDS011;30086;57.660;12.000;2023-08-31T19:57:09;6.63;;;2.55;;
44366;SDS011;30086;57.660;12.000;2023-08-31T20:00:00;5.18;;;3.20;;
44366;SDS011;30086;57.660;12.000;2023-08-31T20:02:41;5.75;;;2.80;;
44366;SDS011;30086;57.660;12.000;2023-08-31T20:05:09;7.35;;;2.90;;
44366;SDS011;30086;57.660;12.000;2023-08-31T20:07:40;2.65;;;2.13;;
44366;SDS011;30086;57.660;12.000;2023-08-31T20:10:14;7.07;;;2.60;;
44366;SDS011;30086;57.660;12.000;2023-08-31T20:13:38;3.47;;;2.53;;
44366;SDS011;30086;57.660;12.000;2023-08-31T20:16:07;5.20;;;2.22;;
44366;SDS011;30086;57.660;12.000;2023-08-31T20:18:40;3.40;;;2.10;;
44366;SDS011;30086;57.660;12.000;2023-08-31T20:21:11;5.45;;;2.60;;
44366;SDS011;30086;57.660;12.000;2023-08-31T20:23:43;4.50;;;2.42;;
44366;SDS011;30086;57.660;12.000;2023-08-31T20:29:31;4.43;;;2.50;;
44366;SDS011;30086;57.660;12.000;2023-08-31T20:32:18;4.93;;;2.40;;
44366;SDS011;30086;57.660;12.000;2023-08-31T20:35:05;8.15;;;2.58;;
44366;SDS011;30086;57.660;12.000;2023-08-31T20:40:58;5.97;;;3.13;;
44366;SDS011;30086;57.660;12.000;2023-08-31T20:43:24;7.15;;;2.40;;
44366;SDS011;30086;57.660;12.000;2023-08-31T20:46:12;5.63;;;2.42;;
44366;SDS011;30086;57.660;12.000;2023-08-31T20:49:14;9.77;;;2.72;;
44366;SDS011;30086;57.660;12.000;2023-08-31T20:52:12;4.03;;;2.45;;
44366;SDS011;30086;57.660;12.000;2023-08-31T20:55:26;8.15;;;2.72;;
44366;SDS011;30086;57.660;12.000;2023-08-31T20:58:42;5.32;;;2.67;;
44366;SDS011;30086;57.660;12.000;2023-08-31T21:06:58;4.85;;;2.92;;
44366;SDS011;30086;57.660;12.000;2023-08-31T21:10:09;4.47;;;2.25;;
44366;SDS011;30086;57.660;12.000;2023-08-31T21:15:54;5.88;;;2.50;;
44366;SDS011;30086;57.660;12.000;2023-08-31T21:22:10;3.75;;;2.25;;
44366;SDS011;30086;57.660;12.000;2023-08-31T21:24:57;4.97;;;2.20;;
44366;SDS011;30086;57.660;12.000;2023-08-31T21:28:08;11.00;;;2.70;;
44366;SDS011;30086;57.660;12.000;2023-08-31T21:30:35;6.63;;;2.70;;
44366;SDS011;30086;57.660;12.000;2023-08-31T21:33:31;3.63;;;2.42;;
44366;SDS011;30086;57.660;12.000;2023-08-31T21:36:17;3.20;;;2.13;;
44366;SDS011;30086;57.660;12.000;2023-08-31T21:39:24;5.90;;;2.45;;
44366;SDS011;30086;57.660;12.000;2023-08-31T21:42:31;4.82;;;2.40;;
44366;SDS011;30086;57.660;12.000;2023-08-31T21:44:58;5.65;;;2.35;;
44366;SDS011;30086;57.660;12.000;2023-08-31T21:48:10;4.47;;;2.47;;
44366;SDS011;30086;57.660;12.000;2023-08-31T21:50:59;5.28;;;2.78;;
44366;SDS011;30086;57.660;12.000;2023-08-31T21:54:05;3.78;;;2.45;;
44366;SDS011;30086;57.660;12.000;2023-08-31T22:02:56;4.00;;;2.83;;
44366;SDS011;30086;57.660;12.000;2023-08-31T22:05:53;3.92;;;1.90;;
44366;SDS011;30086;57.660;12.000;2023-08-31T22:09:06;3.88;;;2.05;;
44366;SDS011;30086;57.660;12.000;2023-08-31T22:17:44;3.67;;;1.92;;
44366;SDS011;30086;57.660;12.000;2023-08-31T22:20:53;3.28;;;2.00;;
44366;SDS011;30086;57.660;12.000;2023-08-31T22:23:21;4.20;;;2.33;;
44366;SDS011;30086;57.660;12.000;2023-08-31T22:29:35;4.82;;;2.45;;
44366;SDS011;30086;57.660;12.000;2023-08-31T22:34:53;5.30;;;2.75;;
44366;SDS011;30086;57.660;12.000;2023-08-31T22:37:28;5.25;;;2.20;;
44366;SDS011;30086;57.660;12.000;2023-08-31T22:40:36;4.30;;;2.60;;
44366;SDS011;30086;57.660;12.000;2023-08-31T22:43:47;5.15;;;2.47;;
44366;SDS011;30086;57.660;12.000;2023-08-31T22:46:45;4.45;;;2.40;;
44366;SDS011;30086;57.660;12.000;2023-08-31T22:49:31;4.45;;;2.67;;
44366;SDS011;30086;57.660;12.000;2023-08-31T22:51:57;3.78;;;2.42;;
44366;SDS011;30086;57.660;12.000;2023-08-31T22:54:53;5.13;;;2.40;;
44366;SDS011;30086;57.660;12.000;2023-08-31T22:57:56;3.88;;;2.42;;
44366;SDS011;30086;57.660;12.000;2023-08-31T23:03:09;6.97;;;2.28;;
44366;SDS011;30086;57.660;12.000;2023-08-31T23:05:56;4.95;;;3.28;;
44366;SDS011;30086;57.660;12.000;2023-08-31T23:08:32;4.60;;;2.38;;
44366;SDS011;30086;57.660;12.000;2023-08-31T23:11:11;6.22;;;2.65;;
44366;SDS011;30086;57.660;12.000;2023-08-31T23:13:38;6.18;;;2.50;;
44366;SDS011;30086;57.660;12.000;2023-08-31T23:16:05;6.07;;;2.80;;
44366;SDS011;30086;57.660;12.000;2023-08-31T23:19:11;8.15;;;2.70;;
44366;SDS011;30086;57.660;12.000;2023-08-31T23:21:38;7.15;;;3.25;;
44366;SDS011;30086;57.660;12.000;2023-08-31T23:24:27;3.55;;;2.65;;
44366;SDS011;30086;57.660;12.000;2023-08-31T23:26:59;6.18;;;2.83;;
44366;SDS011;30086;57.660;12.000;2023-08-31T23:30:21;7.00;;;2.78;;
44366;SDS011;30086;57.660;12.000;2023-08-31T23:36:06;8.90;;;3.10;;
44366;SDS011;30086;57.660;12.000;2023-08-31T23:38:52;7.05;;;3.30;;
44366;SDS011;30086;57.660;12.000;2023-08-31T23:41:38;7.45;;;3.17;;
44366;SDS011;30086;57.660;12.000;2023-08-31T23:44:10;4.75;;;3.20;;
44366;SDS011;30086;57.660;12.000;2023-08-31T23:46:56;6.47;;;3.63;;
44366;SDS011;30086;57.660;12.000;2023-08-31T23:49:42;9.00;;;3.75;;
44366;SDS011;30086;57.660;12.000;2023-08-31T23:52:34;7.70;;;3.40;;
44366;SDS011;30086;57.660;12.000;2023-08-31T23:55:44;9.13;;;3.47;;
44366;SDS011;30086;57.660;12.000;2023-08-31T23:58:50;7.95;;;3.80;;
